Share

Cape Romanzof LRRS, AK

Cape Romanzoff (PACZ) Elev 479 ft | 61.78 °N, 166.04 °W | Change Station

Current weather conditions updated 24 minutes ago

Mostly Cloudy
Mostly Cloudy
36 °F
Feels Like 27 °F
N
14
Wind Variable Wind from ENE
Sunrise 7:31 AM
Sunset 10:37 PM
Moon Waning Gibbous

Today is forecast to be Much Cooler than yesterday. Light snow overnight tonight.

Pressure 29.35 in
Visibility 10.0 miles
Clouds Mostly Cloudy 3900 ft
Windchill 27 °F
Dew Point 31 °F
Humidity 81%
Rainfall 0.00 in
Snow Depth Not available.
UV 0 out of 16
Pollen Not available.
Air Quality Not available.
Flu Activity Sporadic
METAR PACZ 181255Z AUTO 07012KT 10SM BKN039 02/M01 A2933 RMK AO2 SLP938 T00231006

More Conditions Fewer Conditions

Pressure 29.35 in
Visibility 10.0 miles
Clouds Mostly Cloudy 3900 ft
Windchill 27 °F
Dew Point 31 °F
Humidity 81%
Rainfall 0.00 in
Snow Depth Not available.
UV 0 out of 16
Pollen Not available.
Air Quality Not available.
Flu Activity Sporadic
METAR PACZ 181255Z AUTO 07012KT 10SM BKN039 02/M01 A2933 RMK AO2 SLP938 T00231006

More Conditions Fewer Conditions

10-Day Forecast

Almanac

Astronomy

Apr. 18, 2014 Rise Set
Actual Time 7:31 AM AKDT 10:37 PM AKDT
Civil Twilight 6:40 AM AKDT 11:28 PM AKDT
Nautical Twilight 5:28 AM AKDT 12:42 AM AKDT
Astronomical Twilight 3:35 AM AKDT 2:30 AM AKDT
Moon 2:15 AM AKDT 9:21 AM AKDT
Length of Visible Light 16h 48m
Length of Day
15h 06m
Tomorrow will be 5m 52s longer.
Waning Gibbous, 88% of the Moon is Illuminated
Today
Waning Gibbous
Apr 22
Last Quarter
Apr 29
New
May 6
First Quarter
May 14
Full

Today's Extremes

State Highs State Lows

Community

  • What's for Lunch?
    What's for Lunch?
  • SUNRISE THROUGH THE TREES.
    SUNRISE THROUGH THE TREES.
  • Dog Wood Blossoms
    Dog Wood Blossoms
  • Morning Light
    Morning Light
  • New Day
    New Day

WunderPhotos

Upload Photos

1,702,358 photos uploaded!

Nearby

Snow Depth

Station Depth Elevation
Rocky Point 6 in 500 ft
Pargon Creek 3 in 300 ft
Mcneil Canyon 9 in 1320 ft
Port Graham 9 in 300 ft
Susitna Valley High 19 in 375 ft

Coastal Water Temperatures

Place Temperature
No Stations Reporting

Earthquake Activity

City Distance Mag. Time & Date
No recent earthquake activity has been reported nearby.
Minimum magnitude displayed is 2.5.

Nearby Weather Stations

There are no personal weather stations in this area.

What do you think?

We're not finished. Please let us know what you like, what you don't like, and what you are still missing.